sensor_id;sensor_type;location;lat;lon;timestamp;pressure;altitude;pressure_sealevel;temperature
76895;BMP280;65855;42.030;13.078;2023-08-06T00:01:38;93049.47;;;14.17
76895;BMP280;65855;42.030;13.078;2023-08-06T00:04:03;93050.28;;;14.09
76895;BMP280;65855;42.030;13.078;2023-08-06T00:06:29;93055.34;;;14.09
76895;BMP280;65855;42.030;13.078;2023-08-06T00:08:54;93056.81;;;14.10
76895;BMP280;65855;42.030;13.078;2023-08-06T00:11:20;93054.53;;;13.97
76895;BMP280;65855;42.030;13.078;2023-08-06T00:13:45;93055.03;;;13.91
76895;BMP280;65855;42.030;13.078;2023-08-06T00:16:12;93053.94;;;13.71
76895;BMP280;65855;42.030;13.078;2023-08-06T00:18:39;93060.91;;;13.54
76895;BMP280;65855;42.030;13.078;2023-08-06T00:21:04;93055.41;;;13.52
76895;BMP280;65855;42.030;13.078;2023-08-06T00:23:30;93061.31;;;13.56
76895;BMP280;65855;42.030;13.078;2023-08-06T00:25:55;93059.53;;;13.57
76895;BMP280;65855;42.030;13.078;2023-08-06T00:28:21;93062.63;;;13.62
76895;BMP280;65855;42.030;13.078;2023-08-06T00:30:46;93063.50;;;13.66
76895;BMP280;65855;42.030;13.078;2023-08-06T00:33:11;93059.44;;;13.73
76895;BMP280;65855;42.030;13.078;2023-08-06T00:35:37;93048.44;;;13.69
76895;BMP280;65855;42.030;13.078;2023-08-06T00:38:02;93053.63;;;13.73
76895;BMP280;65855;42.030;13.078;2023-08-06T00:40:28;93045.16;;;13.69
76895;BMP280;65855;42.030;13.078;2023-08-06T00:42:56;93048.75;;;13.68
76895;BMP280;65855;42.030;13.078;2023-08-06T00:45:21;93047.34;;;13.79
76895;BMP280;65855;42.030;13.078;2023-08-06T00:47:48;93047.44;;;13.82
76895;BMP280;65855;42.030;13.078;2023-08-06T00:50:14;93055.19;;;13.86
76895;BMP280;65855;42.030;13.078;2023-08-06T00:52:40;93055.03;;;13.91
76895;BMP280;65855;42.030;13.078;2023-08-06T00:55:06;93057.47;;;13.79
76895;BMP280;65855;42.030;13.078;2023-08-06T00:57:32;93052.97;;;13.84
76895;BMP280;65855;42.030;13.078;2023-08-06T00:59:58;93055.59;;;13.96
76895;BMP280;65855;42.030;13.078;2023-08-06T01:02:23;93061.19;;;14.01
76895;BMP280;65855;42.030;13.078;2023-08-06T01:04:49;93065.78;;;14.08
76895;BMP280;65855;42.030;13.078;2023-08-06T01:07:57;93062.72;;;14.02
76895;BMP280;65855;42.030;13.078;2023-08-06T01:15:36;93063.25;;;14.28
76895;BMP280;65855;42.030;13.078;2023-08-06T01:18:04;93058.19;;;14.40
76895;BMP280;65855;42.030;13.078;2023-08-06T01:20:31;93059.94;;;14.47
76895;BMP280;65855;42.030;13.078;2023-08-06T01:22:56;93065.44;;;14.49
76895;BMP280;65855;42.030;13.078;2023-08-06T01:25:34;93056.13;;;14.42
76895;BMP280;65855;42.030;13.078;2023-08-06T01:28:18;93062.63;;;14.31
76895;BMP280;65855;42.030;13.078;2023-08-06T01:30:48;93065.53;;;14.21
76895;BMP280;65855;42.030;13.078;2023-08-06T01:33:19;93061.97;;;14.22
76895;BMP280;65855;42.030;13.078;2023-08-06T01:35:46;93056.66;;;14.15
76895;BMP280;65855;42.030;13.078;2023-08-06T01:38:12;93066.56;;;14.20
76895;BMP280;65855;42.030;13.078;2023-08-06T01:40:38;93058.97;;;14.20
76895;BMP280;65855;42.030;13.078;2023-08-06T01:43:03;93061.22;;;14.21
76895;BMP280;65855;42.030;13.078;2023-08-06T01:45:28;93070.09;;;14.27
76895;BMP280;65855;42.030;13.078;2023-08-06T01:47:54;93069.44;;;14.18
76895;BMP280;65855;42.030;13.078;2023-08-06T01:50:19;93066.72;;;14.03
76895;BMP280;65855;42.030;13.078;2023-08-06T01:52:45;93066.44;;;13.76
76895;BMP280;65855;42.030;13.078;2023-08-06T01:55:10;93057.81;;;13.69
76895;BMP280;65855;42.030;13.078;2023-08-06T01:57:35;93062.53;;;13.79
76895;BMP280;65855;42.030;13.078;2023-08-06T02:00:01;93060.81;;;13.71
76895;BMP280;65855;42.030;13.078;2023-08-06T02:02:26;93062.03;;;13.65
76895;BMP280;65855;42.030;13.078;2023-08-06T02:04:52;93056.09;;;13.61
76895;BMP280;65855;42.030;13.078;2023-08-06T02:07:17;93044.97;;;13.54
76895;BMP280;65855;42.030;13.078;2023-08-06T02:09:42;93036.00;;;13.56
76895;BMP280;65855;42.030;13.078;2023-08-06T02:12:08;93043.16;;;13.54
76895;BMP280;65855;42.030;13.078;2023-08-06T02:14:33;93043.97;;;13.46
76895;BMP280;65855;42.030;13.078;2023-08-06T02:16:59;93046.06;;;13.45
76895;BMP280;65855;42.030;13.078;2023-08-06T02:19:25;93048.28;;;13.46
76895;BMP280;65855;42.030;13.078;2023-08-06T02:21:50;93049.03;;;13.46
76895;BMP280;65855;42.030;13.078;2023-08-06T02:24:15;93042.81;;;13.64
76895;BMP280;65855;42.030;13.078;2023-08-06T02:26:41;93039.00;;;13.78
76895;BMP280;65855;42.030;13.078;2023-08-06T02:29:06;93048.31;;;13.66
76895;BMP280;65855;42.030;13.078;2023-08-06T02:31:31;93049.03;;;13.46
76895;BMP280;65855;42.030;13.078;2023-08-06T02:33:57;93049.78;;;13.47
76895;BMP280;65855;42.030;13.078;2023-08-06T02:36:23;93046.94;;;13.48
76895;BMP280;65855;42.030;13.078;2023-08-06T02:38:49;93042.81;;;13.44
76895;BMP280;65855;42.030;13.078;2023-08-06T02:41:14;93035.16;;;13.24
76895;BMP280;65855;42.030;13.078;2023-08-06T02:43:40;93034.91;;;13.37
76895;BMP280;65855;42.030;13.078;2023-08-06T02:46:05;93035.22;;;13.36
76895;BMP280;65855;42.030;13.078;2023-08-06T02:48:31;93044.31;;;13.37
76895;BMP280;65855;42.030;13.078;2023-08-06T02:50:59;93038.53;;;13.56
76895;BMP280;65855;42.030;13.078;2023-08-06T02:53:25;93035.47;;;13.51
76895;BMP280;65855;42.030;13.078;2023-08-06T02:55:50;93039.41;;;13.60
76895;BMP280;65855;42.030;13.078;2023-08-06T02:58:17;93031.13;;;13.51
76895;BMP280;65855;42.030;13.078;2023-08-06T03:00:43;93027.03;;;13.39
76895;BMP280;65855;42.030;13.078;2023-08-06T03:03:09;93023.81;;;13.30
76895;BMP280;65855;42.030;13.078;2023-08-06T03:05:35;93018.22;;;13.16
76895;BMP280;65855;42.030;13.078;2023-08-06T03:08:00;93005.00;;;13.11
76895;BMP280;65855;42.030;13.078;2023-08-06T03:10:26;93004.25;;;13.10
76895;BMP280;65855;42.030;13.078;2023-08-06T03:12:51;93002.78;;;13.09
76895;BMP280;65855;42.030;13.078;2023-08-06T03:15:16;92990.31;;;13.24
76895;BMP280;65855;42.030;13.078;2023-08-06T03:17:42;92980.91;;;13.05
76895;BMP280;65855;42.030;13.078;2023-08-06T03:20:09;92982.53;;;13.09
76895;BMP280;65855;42.030;13.078;2023-08-06T03:22:35;92987.94;;;12.99
76895;BMP280;65855;42.030;13.078;2023-08-06T03:25:00;92977.03;;;13.07
76895;BMP280;65855;42.030;13.078;2023-08-06T03:27:25;92987.84;;;13.16
76895;BMP280;65855;42.030;13.078;2023-08-06T03:29:51;92987.84;;;13.16
76895;BMP280;65855;42.030;13.078;2023-08-06T03:32:16;92987.69;;;13.21
76895;BMP280;65855;42.030;13.078;2023-08-06T03:34:42;92988.84;;;13.23
76895;BMP280;65855;42.030;13.078;2023-08-06T03:37:07;92999.16;;;13.19
76895;BMP280;65855;42.030;13.078;2023-08-06T03:39:33;93009.03;;;13.03
76895;BMP280;65855;42.030;13.078;2023-08-06T03:41:58;93008.88;;;13.57
76895;BMP280;65855;42.030;13.078;2023-08-06T03:44:23;93006.63;;;13.64
76895;BMP280;65855;42.030;13.078;2023-08-06T03:46:49;93008.03;;;13.53
76895;BMP280;65855;42.030;13.078;2023-08-06T03:49:14;93024.50;;;13.39
76895;BMP280;65855;42.030;13.078;2023-08-06T03:51:40;93015.56;;;13.13
76895;BMP280;65855;42.030;13.078;2023-08-06T03:54:05;93015.13;;;13.11
76895;BMP280;65855;42.030;13.078;2023-08-06T03:56:30;93019.56;;;13.14
76895;BMP280;65855;42.030;13.078;2023-08-06T03:58:56;93021.22;;;12.65
76895;BMP280;65855;42.030;13.078;2023-08-06T04:01:21;93025.41;;;12.52
76895;BMP280;65855;42.030;13.078;2023-08-06T04:03:47;93017.13;;;12.44
76895;BMP280;65855;42.030;13.078;2023-08-06T04:06:12;93008.34;;;12.49
76895;BMP280;65855;42.030;13.078;2023-08-06T04:08:38;93017.16;;;12.35
76895;BMP280;65855;42.030;13.078;2023-08-06T04:11:03;93015.50;;;12.31
76895;BMP280;65855;42.030;13.078;2023-08-06T04:13:28;93012.28;;;11.97
76895;BMP280;65855;42.030;13.078;2023-08-06T04:15:54;93017.47;;;12.00
76895;BMP280;65855;42.030;13.078;2023-08-06T04:18:19;93014.38;;;12.03
76895;BMP280;65855;42.030;13.078;2023-08-06T04:20:46;93011.84;;;11.87
76895;BMP280;65855;42.030;13.078;2023-08-06T04:23:11;93014.91;;;12.34
76895;BMP280;65855;42.030;13.078;2023-08-06T04:25:37;93015.16;;;12.57
76895;BMP280;65855;42.030;13.078;2023-08-06T04:28:02;93003.50;;;12.73
76895;BMP280;65855;42.030;13.078;2023-08-06T04:30:28;93007.56;;;12.74
76895;BMP280;65855;42.030;13.078;2023-08-06T04:32:53;92991.69;;;12.48
76895;BMP280;65855;42.030;13.078;2023-08-06T04:35:19;92997.06;;;12.39
76895;BMP280;65855;42.030;13.078;2023-08-06T04:37:44;92993.16;;;12.49
76895;BMP280;65855;42.030;13.078;2023-08-06T04:40:10;92997.03;;;12.92
76895;BMP280;65855;42.030;13.078;2023-08-06T04:42:35;92998.47;;;13.30
76895;BMP280;65855;42.030;13.078;2023-08-06T04:45:01;92997.41;;;13.39
76895;BMP280;65855;42.030;13.078;2023-08-06T04:47:27;92995.22;;;13.49
76895;BMP280;65855;42.030;13.078;2023-08-06T04:49:53;92999.38;;;13.54
76895;BMP280;65855;42.030;13.078;2023-08-06T04:52:18;93002.06;;;13.57
76895;BMP280;65855;42.030;13.078;2023-08-06T04:54:43;93014.47;;;13.50
76895;BMP280;65855;42.030;13.078;2023-08-06T04:57:09;93012.22;;;13.49
76895;BMP280;65855;42.030;13.078;2023-08-06T04:59:35;93011.97;;;13.62
76895;BMP280;65855;42.030;13.078;2023-08-06T05:02:01;93011.41;;;13.57
76895;BMP280;65855;42.030;13.078;2023-08-06T05:04:27;93008.72;;;13.62
76895;BMP280;65855;42.030;13.078;2023-08-06T05:06:52;93018.53;;;13.63
76895;BMP280;65855;42.030;13.078;2023-08-06T05:09:18;93020.47;;;13.66
76895;BMP280;65855;42.030;13.078;2023-08-06T05:11:43;93014.03;;;13.68
76895;BMP280;65855;42.030;13.078;2023-08-06T05:14:08;93017.38;;;13.81
76895;BMP280;65855;42.030;13.078;2023-08-06T05:16:34;93018.22;;;14.25
76895;BMP280;65855;42.030;13.078;2023-08-06T05:18:59;93025.34;;;14.75
76895;BMP280;65855;42.030;13.078;2023-08-06T05:21:24;93013.72;;;14.97
76895;BMP280;65855;42.030;13.078;2023-08-06T05:23:50;93007.94;;;15.09
76895;BMP280;65855;42.030;13.078;2023-08-06T05:26:15;93007.94;;;15.32
76895;BMP280;65855;42.030;13.078;2023-08-06T05:28:44;93013.13;;;15.24
76895;BMP280;65855;42.030;13.078;2023-08-06T05:31:10;93008.03;;;15.47
76895;BMP280;65855;42.030;13.078;2023-08-06T05:33:35;93005.66;;;15.78
76895;BMP280;65855;42.030;13.078;2023-08-06T05:36:00;93001.75;;;16.07
76895;BMP280;65855;42.030;13.078;2023-08-06T05:38:26;93024.06;;;15.75
76895;BMP280;65855;42.030;13.078;2023-08-06T05:40:52;93019.41;;;16.27
76895;BMP280;65855;42.030;13.078;2023-08-06T05:43:17;93011.34;;;15.86
76895;BMP280;65855;42.030;13.078;2023-08-06T05:45:46;93021.50;;;15.86
76895;BMP280;65855;42.030;13.078;2023-08-06T05:48:14;93027.94;;;16.35
76895;BMP280;65855;42.030;13.078;2023-08-06T05:50:39;93028.31;;;16.48
76895;BMP280;65855;42.030;13.078;2023-08-06T05:53:05;93025.56;;;16.83
76895;BMP280;65855;42.030;13.078;2023-08-06T05:55:30;93023.88;;;17.18
76895;BMP280;65855;42.030;13.078;2023-08-06T05:57:57;93033.88;;;17.41
76895;BMP280;65855;42.030;13.078;2023-08-06T06:00:22;93032.19;;;17.64
76895;BMP280;65855;42.030;13.078;2023-08-06T06:02:48;93035.16;;;18.55
76895;BMP280;65855;42.030;13.078;2023-08-06T06:05:13;93039.78;;;19.31
76895;BMP280;65855;42.030;13.078;2023-08-06T06:07:39;93033.22;;;19.56
76895;BMP280;65855;42.030;13.078;2023-08-06T06:10:05;93025.03;;;19.98
76895;BMP280;65855;42.030;13.078;2023-08-06T06:12:30;93022.28;;;20.10
76895;BMP280;65855;42.030;13.078;2023-08-06T06:14:56;93025.44;;;20.00
76895;BMP280;65855;42.030;13.078;2023-08-06T06:17:21;93021.22;;;19.85
76895;BMP280;65855;42.030;13.078;2023-08-06T06:19:46;93021.28;;;19.41
76895;BMP280;65855;42.030;13.078;2023-08-06T06:22:12;93022.69;;;19.86
76895;BMP280;65855;42.030;13.078;2023-08-06T06:24:37;93018.19;;;20.34
76895;BMP280;65855;42.030;13.078;2023-08-06T06:27:03;93017.03;;;20.61
76895;BMP280;65855;42.030;13.078;2023-08-06T06:29:29;93019.91;;;19.47
76895;BMP280;65855;42.030;13.078;2023-08-06T06:31:54;93020.28;;;18.79
76895;BMP280;65855;42.030;13.078;2023-08-06T06:34:20;93024.81;;;19.33
76895;BMP280;65855;42.030;13.078;2023-08-06T06:36:45;93023.91;;;20.24
76895;BMP280;65855;42.030;13.078;2023-08-06T06:39:11;93031.31;;;20.97
76895;BMP280;65855;42.030;13.078;2023-08-06T06:41:36;93030.28;;;20.37
76895;BMP280;65855;42.030;13.078;2023-08-06T06:44:02;93030.13;;;21.27
76895;BMP280;65855;42.030;13.078;2023-08-06T06:46:27;93022.38;;;21.73
76895;BMP280;65855;42.030;13.078;2023-08-06T06:48:53;93022.53;;;21.97
76895;BMP280;65855;42.030;13.078;2023-08-06T06:51:18;93020.91;;;22.42
76895;BMP280;65855;42.030;13.078;2023-08-06T06:53:44;93021.34;;;22.62
76895;BMP280;65855;42.030;13.078;2023-08-06T06:56:09;93015.53;;;22.78
76895;BMP280;65855;42.030;13.078;2023-08-06T06:58:34;93011.94;;;23.31
76895;BMP280;65855;42.030;13.078;2023-08-06T07:01:00;93004.16;;;23.92
76895;BMP280;65855;42.030;13.078;2023-08-06T07:03:25;93006.75;;;23.72
76895;BMP280;65855;42.030;13.078;2023-08-06T07:05:51;93006.94;;;24.46
76895;BMP280;65855;42.030;13.078;2023-08-06T07:08:16;93008.63;;;25.33
76895;BMP280;65855;42.030;13.078;2023-08-06T07:10:42;93001.25;;;25.81
76895;BMP280;65855;42.030;13.078;2023-08-06T07:13:08;92993.56;;;26.11
76895;BMP280;65855;42.030;13.078;2023-08-06T07:15:34;92987.94;;;25.83
76895;BMP280;65855;42.030;13.078;2023-08-06T07:17:59;92978.03;;;25.38
76895;BMP280;65855;42.030;13.078;2023-08-06T07:20:25;92984.66;;;26.15
76895;BMP280;65855;42.030;13.078;2023-08-06T07:22:50;92982.53;;;25.28
76895;BMP280;65855;42.030;13.078;2023-08-06T07:25:16;92984.78;;;25.19
76895;BMP280;65855;42.030;13.078;2023-08-06T07:27:42;92989.38;;;24.17
76895;BMP280;65855;42.030;13.078;2023-08-06T07:30:08;92980.91;;;24.97
76895;BMP280;65855;42.030;13.078;2023-08-06T07:32:33;92989.31;;;25.91
76895;BMP280;65855;42.030;13.078;2023-08-06T07:34:59;92996.25;;;26.37
76895;BMP280;65855;42.030;13.078;2023-08-06T07:37:26;92985.81;;;26.44
76895;BMP280;65855;42.030;13.078;2023-08-06T07:39:54;92986.34;;;26.32
76895;BMP280;65855;42.030;13.078;2023-08-06T07:42:19;92997.91;;;27.35
76895;BMP280;65855;42.030;13.078;2023-08-06T07:44:51;92997.00;;;26.93
76895;BMP280;65855;42.030;13.078;2023-08-06T07:47:17;93000.38;;;27.87
76895;BMP280;65855;42.030;13.078;2023-08-06T07:49:43;92991.56;;;27.58
76895;BMP280;65855;42.030;13.078;2023-08-06T07:52:08;92978.88;;;27.22
76895;BMP280;65855;42.030;13.078;2023-08-06T07:54:33;92990.22;;;27.50
76895;BMP280;65855;42.030;13.078;2023-08-06T07:56:59;92988.03;;;28.32
76895;BMP280;65855;42.030;13.078;2023-08-06T07:59:24;92992.81;;;28.34
76895;BMP280;65855;42.030;13.078;2023-08-06T08:01:50;92992.19;;;28.84
76895;BMP280;65855;42.030;13.078;2023-08-06T08:04:15;92988.00;;;28.90
76895;BMP280;65855;42.030;13.078;2023-08-06T08:06:41;92999.09;;;29.09
76895;BMP280;65855;42.030;13.078;2023-08-06T08:09:06;92997.31;;;29.69
76895;BMP280;65855;42.030;13.078;2023-08-06T08:11:32;93000.25;;;29.40
76895;BMP280;65855;42.030;13.078;2023-08-06T08:13:57;92992.91;;;29.97
76895;BMP280;65855;42.030;13.078;2023-08-06T08:16:23;93000.06;;;30.21
76895;BMP280;65855;42.030;13.078;2023-08-06T08:18:48;93005.59;;;29.48
76895;BMP280;65855;42.030;13.078;2023-08-06T08:21:13;93004.00;;;30.14
76895;BMP280;65855;42.030;13.078;2023-08-06T08:23:39;93003.94;;;30.17
76895;BMP280;65855;42.030;13.078;2023-08-06T08:26:04;93005.31;;;30.74
76895;BMP280;65855;42.030;13.078;2023-08-06T08:28:30;93002.00;;;30.86
76895;BMP280;65855;42.030;13.078;2023-08-06T08:30:55;93006.81;;;28.94
76895;BMP280;65855;42.030;13.078;2023-08-06T08:33:21;92995.88;;;28.67
76895;BMP280;65855;42.030;13.078;2023-08-06T08:35:47;93011.66;;;27.02
76895;BMP280;65855;42.030;13.078;2023-08-06T08:38:13;93019.31;;;23.42
76895;BMP280;65855;42.030;13.078;2023-08-06T08:40:46;93019.56;;;22.72
76895;BMP280;65855;42.030;13.078;2023-08-06T08:43:14;93022.88;;;22.76
76895;BMP280;65855;42.030;13.078;2023-08-06T08:45:42;93023.63;;;22.80
76895;BMP280;65855;42.030;13.078;2023-08-06T08:48:10;93032.25;;;22.31
76895;BMP280;65855;42.030;13.078;2023-08-06T08:50:36;93025.16;;;22.01
76895;BMP280;65855;42.030;13.078;2023-08-06T08:53:02;93029.50;;;22.70
76895;BMP280;65855;42.030;13.078;2023-08-06T08:55:28;93037.69;;;23.48
76895;BMP280;65855;42.030;13.078;2023-08-06T08:57:53;93030.13;;;22.54
76895;BMP280;65855;42.030;13.078;2023-08-06T09:00:19;93024.72;;;22.79
76895;BMP280;65855;42.030;13.078;2023-08-06T09:02:45;93022.78;;;22.45
76895;BMP280;65855;42.030;13.078;2023-08-06T09:05:12;93032.06;;;21.97
76895;BMP280;65855;42.030;13.078;2023-08-06T09:07:48;93023.53;;;22.56
76895;BMP280;65855;42.030;13.078;2023-08-06T09:10:16;93034.00;;;23.52
76895;BMP280;65855;42.030;13.078;2023-08-06T09:12:43;93023.94;;;21.88
76895;BMP280;65855;42.030;13.078;2023-08-06T09:15:10;93029.03;;;22.51
76895;BMP280;65855;42.030;13.078;2023-08-06T09:17:36;93042.41;;;23.25
76895;BMP280;65855;42.030;13.078;2023-08-06T09:20:13;93035.44;;;23.15
76895;BMP280;65855;42.030;13.078;2023-08-06T09:22:39;93030.13;;;22.54
76895;BMP280;65855;42.030;13.078;2023-08-06T09:25:07;93027.69;;;23.02
76895;BMP280;65855;42.030;13.078;2023-08-06T09:27:36;93029.41;;;22.57
76895;BMP280;65855;42.030;13.078;2023-08-06T09:30:02;93025.09;;;23.98
76895;BMP280;65855;42.030;13.078;2023-08-06T09:32:44;93023.66;;;23.01
76895;BMP280;65855;42.030;13.078;2023-08-06T09:35:15;93010.16;;;24.74
76895;BMP280;65855;42.030;13.078;2023-08-06T09:37:41;93008.88;;;24.18
76895;BMP280;65855;42.030;13.078;2023-08-06T09:40:28;93015.59;;;23.81
76895;BMP280;65855;42.030;13.078;2023-08-06T09:42:54;93025.88;;;23.26
76895;BMP280;65855;42.030;13.078;2023-08-06T09:45:20;93011.22;;;23.54
76895;BMP280;65855;42.030;13.078;2023-08-06T09:47:48;93014.88;;;23.46
76895;BMP280;65855;42.030;13.078;2023-08-06T09:50:17;93023.66;;;23.14
76895;BMP280;65855;42.030;13.078;2023-08-06T09:52:44;93005.72;;;24.78
76895;BMP280;65855;42.030;13.078;2023-08-06T09:55:11;93002.31;;;24.00
76895;BMP280;65855;42.030;13.078;2023-08-06T09:57:37;93008.56;;;23.99
76895;BMP280;65855;42.030;13.078;2023-08-06T10:00:03;92995.25;;;24.31
76895;BMP280;65855;42.030;13.078;2023-08-06T10:02:30;92991.91;;;24.34
76895;BMP280;65855;42.030;13.078;2023-08-06T10:04:57;93012.25;;;23.84
76895;BMP280;65855;42.030;13.078;2023-08-06T10:07:23;93005.97;;;23.92
76895;BMP280;65855;42.030;13.078;2023-08-06T10:09:49;93000.19;;;23.50
76895;BMP280;65855;42.030;13.078;2023-08-06T10:12:15;93000.09;;;24.02
76895;BMP280;65855;42.030;13.078;2023-08-06T10:14:43;92998.53;;;25.06
76895;BMP280;65855;42.030;13.078;2023-08-06T10:17:11;92989.69;;;24.29
76895;BMP280;65855;42.030;13.078;2023-08-06T10:19:36;92986.72;;;24.41
76895;BMP280;65855;42.030;13.078;2023-08-06T10:24:54;92985.72;;;24.95
76895;BMP280;65855;42.030;13.078;2023-08-06T10:27:29;92995.00;;;23.81
76895;BMP280;65855;42.030;13.078;2023-08-06T10:32:49;93009.66;;;23.91
76895;BMP280;65855;42.030;13.078;2023-08-06T10:35:38;92988.34;;;24.82
76895;BMP280;65855;42.030;13.078;2023-08-06T10:38:14;92978.56;;;24.49
76895;BMP280;65855;42.030;13.078;2023-08-06T10:43:34;92980.31;;;23.37
76895;BMP280;65855;42.030;13.078;2023-08-06T10:46:08;92978.25;;;24.37
76895;BMP280;65855;42.030;13.078;2023-08-06T10:48:39;92979.91;;;23.86
76895;BMP280;65855;42.030;13.078;2023-08-06T10:51:12;92994.94;;;23.95
76895;BMP280;65855;42.030;13.078;2023-08-06T10:53:42;92988.00;;;23.78
76895;BMP280;65855;42.030;13.078;2023-08-06T10:56:15;93008.91;;;24.08
76895;BMP280;65855;42.030;13.078;2023-08-06T10:58:42;93003.19;;;25.24
76895;BMP280;65855;42.030;13.078;2023-08-06T11:01:08;93007.94;;;25.76
76895;BMP280;65855;42.030;13.078;2023-08-06T11:03:33;93022.91;;;24.00
76895;BMP280;65855;42.030;13.078;2023-08-06T11:05:59;93007.78;;;24.15
76895;BMP280;65855;42.030;13.078;2023-08-06T11:08:26;93018.88;;;23.78
76895;BMP280;65855;42.030;13.078;2023-08-06T11:10:51;93018.47;;;24.04
76895;BMP280;65855;42.030;13.078;2023-08-06T11:13:17;93020.66;;;24.22
76895;BMP280;65855;42.030;13.078;2023-08-06T11:15:44;92994.81;;;24.36
76895;BMP280;65855;42.030;13.078;2023-08-06T11:18:10;93010.06;;;23.86
76895;BMP280;65855;42.030;13.078;2023-08-06T11:20:36;92999.38;;;23.94
76895;BMP280;65855;42.030;13.078;2023-08-06T11:23:01;92987.19;;;24.19
76895;BMP280;65855;42.030;13.078;2023-08-06T11:25:27;92977.69;;;23.82
76895;BMP280;65855;42.030;13.078;2023-08-06T11:27:52;92973.22;;;24.06
76895;BMP280;65855;42.030;13.078;2023-08-06T11:30:18;92971.75;;;24.86
76895;BMP280;65855;42.030;13.078;2023-08-06T11:32:47;92978.16;;;25.21
76895;BMP280;65855;42.030;13.078;2023-08-06T11:35:13;92973.59;;;24.85
76895;BMP280;65855;42.030;13.078;2023-08-06T11:37:40;92984.38;;;23.62
76895;BMP280;65855;42.030;13.078;2023-08-06T11:40:09;92967.69;;;24.11
76895;BMP280;65855;42.030;13.078;2023-08-06T11:42:36;92964.50;;;24.60
76895;BMP280;65855;42.030;13.078;2023-08-06T11:45:03;92962.13;;;24.26
76895;BMP280;65855;42.030;13.078;2023-08-06T11:47:29;92961.88;;;24.78
76895;BMP280;65855;42.030;13.078;2023-08-06T11:49:55;92975.91;;;23.55
76895;BMP280;65855;42.030;13.078;2023-08-06T11:52:24;92967.25;;;24.30
76895;BMP280;65855;42.030;13.078;2023-08-06T11:55:03;92969.19;;;24.09
76895;BMP280;65855;42.030;13.078;2023-08-06T11:57:32;92974.63;;;25.02
76895;BMP280;65855;42.030;13.078;2023-08-06T12:00:04;92965.50;;;24.03
76895;BMP280;65855;42.030;13.078;2023-08-06T12:02:31;92974.50;;;24.52
76895;BMP280;65855;42.030;13.078;2023-08-06T12:05:11;92977.09;;;24.48
76895;BMP280;65855;42.030;13.078;2023-08-06T12:10:03;92978.03;;;24.85
76895;BMP280;65855;42.030;13.078;2023-08-06T12:12:29;93000.56;;;24.71
76895;BMP280;65855;42.030;13.078;2023-08-06T12:14:54;92977.63;;;24.19
76895;BMP280;65855;42.030;13.078;2023-08-06T12:17:21;92999.44;;;23.74
76895;BMP280;65855;42.030;13.078;2023-08-06T12:19:46;92982.81;;;23.85
76895;BMP280;65855;42.030;13.078;2023-08-06T12:22:13;92972.50;;;24.12
76895;BMP280;65855;42.030;13.078;2023-08-06T12:24:40;92977.66;;;23.92
76895;BMP280;65855;42.030;13.078;2023-08-06T12:27:06;92988.41;;;23.60
76895;BMP280;65855;42.030;13.078;2023-08-06T12:29:31;92979.75;;;24.34
76895;BMP280;65855;42.030;13.078;2023-08-06T12:31:57;93000.09;;;24.09
76895;BMP280;65855;42.030;13.078;2023-08-06T12:34:22;92982.78;;;24.12
76895;BMP280;65855;42.030;13.078;2023-08-06T12:36:48;92979.84;;;24.04
76895;BMP280;65855;42.030;13.078;2023-08-06T12:39:13;92989.84;;;24.83
76895;BMP280;65855;42.030;13.078;2023-08-06T12:41:39;92981.75;;;23.86
76895;BMP280;65855;42.030;13.078;2023-08-06T12:44:04;92994.69;;;24.70
76895;BMP280;65855;42.030;13.078;2023-08-06T12:46:30;92982.91;;;25.69
76895;BMP280;65855;42.030;13.078;2023-08-06T12:48:56;92987.78;;;24.43
76895;BMP280;65855;42.030;13.078;2023-08-06T12:51:23;92980.19;;;24.19
76895;BMP280;65855;42.030;13.078;2023-08-06T12:53:49;92996.41;;;24.10
76895;BMP280;65855;42.030;13.078;2023-08-06T12:56:14;92995.47;;;24.57
76895;BMP280;65855;42.030;13.078;2023-08-06T12:58:39;92986.13;;;23.89
76895;BMP280;65855;42.030;13.078;2023-08-06T13:01:05;92985.25;;;24.36
76895;BMP280;65855;42.030;13.078;2023-08-06T13:03:31;92986.50;;;24.82
76895;BMP280;65855;42.030;13.078;2023-08-06T13:05:56;92993.13;;;23.99
76895;BMP280;65855;42.030;13.078;2023-08-06T13:08:23;92987.44;;;24.45
76895;BMP280;65855;42.030;13.078;2023-08-06T13:10:48;92985.78;;;24.82
76895;BMP280;65855;42.030;13.078;2023-08-06T13:13:14;92989.28;;;24.41
76895;BMP280;65855;42.030;13.078;2023-08-06T13:15:39;92987.25;;;23.88
76895;BMP280;65855;42.030;13.078;2023-08-06T13:18:04;92990.81;;;24.28
76895;BMP280;65855;42.030;13.078;2023-08-06T13:20:30;92976.91;;;24.09
76895;BMP280;65855;42.030;13.078;2023-08-06T13:22:58;92991.78;;;24.55
76895;BMP280;65855;42.030;13.078;2023-08-06T13:25:24;92988.78;;;24.70
76895;BMP280;65855;42.030;13.078;2023-08-06T13:27:50;92991.84;;;25.61
76895;BMP280;65855;42.030;13.078;2023-08-06T13:30:15;92977.69;;;26.12
76895;BMP280;65855;42.030;13.078;2023-08-06T13:32:43;92992.59;;;24.41
76895;BMP280;65855;42.030;13.078;2023-08-06T13:35:09;93000.16;;;24.79
76895;BMP280;65855;42.030;13.078;2023-08-06T13:37:35;93003.34;;;25.04
76895;BMP280;65855;42.030;13.078;2023-08-06T13:40:00;92989.16;;;25.25
76895;BMP280;65855;42.030;13.078;2023-08-06T13:42:26;92993.47;;;24.88
76895;BMP280;65855;42.030;13.078;2023-08-06T13:44:51;92995.44;;;25.24
76895;BMP280;65855;42.030;13.078;2023-08-06T13:47:17;92987.06;;;26.62
76895;BMP280;65855;42.030;13.078;2023-08-06T13:49:42;92993.81;;;25.87
76895;BMP280;65855;42.030;13.078;2023-08-06T13:52:07;92991.19;;;24.23
76895;BMP280;65855;42.030;13.078;2023-08-06T13:54:33;93001.19;;;26.25
76895;BMP280;65855;42.030;13.078;2023-08-06T13:56:58;93002.31;;;25.84
76895;BMP280;65855;42.030;13.078;2023-08-06T13:59:24;92998.00;;;25.28
76895;BMP280;65855;42.030;13.078;2023-08-06T14:01:50;92996.22;;;25.68
76895;BMP280;65855;42.030;13.078;2023-08-06T14:04:15;92999.09;;;26.46
76895;BMP280;65855;42.030;13.078;2023-08-06T14:06:41;92995.06;;;27.26
76895;BMP280;65855;42.030;13.078;2023-08-06T14:09:07;93000.31;;;26.67